createdAt,value
2023-09-13T00:00:49.601Z,101131.91
2023-09-13T00:03:23.325Z,101125.66
2023-09-13T00:05:56.352Z,101128.34
2023-09-13T00:08:29.330Z,101121.78
2023-09-13T00:11:03.128Z,101129.88
2023-09-13T00:13:36.308Z,101129.38
2023-09-13T00:16:04.457Z,101130.38
2023-09-13T00:18:37.345Z,101129.81
2023-09-13T00:21:04.138Z,101119.38
2023-09-13T00:23:37.305Z,101125.75
2023-09-13T00:26:06.545Z,101122.41
2023-09-13T00:28:40.319Z,101122.06
2023-09-13T00:31:10.464Z,101125.44
2023-09-13T00:33:44.501Z,101125.44
2023-09-13T00:36:11.529Z,101129.16
2023-09-13T00:38:44.355Z,101126.63
2023-09-13T00:41:11.139Z,101129.50
2023-09-13T00:43:44.526Z,101131.34
2023-09-13T00:46:11.885Z,101131.34
2023-09-13T00:48:45.434Z,101134.03
2023-09-13T00:51:19.294Z,101127.66
2023-09-13T00:54:06.402Z,101127.66
2023-09-13T00:56:34.721Z,101131.34
2023-09-13T00:59:09.315Z,101130.81
2023-09-13T01:01:43.490Z,101133.34
2023-09-13T01:04:10.494Z,101128.13
2023-09-13T01:06:45.424Z,101123.91
2023-09-13T01:09:15.300Z,101129.47
2023-09-13T01:11:48.332Z,101123.41
2023-09-13T01:14:14.991Z,101125.09
2023-09-13T01:16:58.468Z,101122.56
2023-09-13T01:19:52.356Z,101123.72
2023-09-13T01:22:32.361Z,101135.19
2023-09-13T01:25:17.493Z,101128.94
2023-09-13T01:27:57.357Z,101142.31
2023-09-13T01:30:26.248Z,101140.59
2023-09-13T01:33:00.404Z,101136.22
2023-09-13T01:35:27.143Z,101133.84
2023-09-13T01:38:00.387Z,101124.41
2023-09-13T01:40:30.918Z,101130.63
2023-09-13T01:43:07.422Z,101133.66
2023-09-13T01:45:42.426Z,101135.84
2023-09-13T01:48:18.407Z,101137.69
2023-09-13T01:50:45.869Z,101126.25
2023-09-13T01:53:12.818Z,101141.41
2023-09-13T01:55:46.410Z,101139.56
2023-09-13T01:58:13.186Z,101138.38
2023-09-13T02:00:47.531Z,101145.28
2023-09-13T02:03:14.734Z,101141.59
2023-09-13T02:05:48.374Z,101147.84
2023-09-13T02:08:15.056Z,101144.78
2023-09-13T02:10:48.418Z,101140.38
2023-09-13T02:13:15.250Z,101143.09
2023-09-13T02:15:49.532Z,101135.50
2023-09-13T02:18:16.617Z,101142.25
2023-09-13T02:20:43.642Z,101143.44
2023-09-13T02:23:16.448Z,101153.38
2023-09-13T02:25:53.372Z,101154.22
2023-09-13T02:28:26.488Z,101143.59
2023-09-13T02:30:59.536Z,101152.53
2023-09-13T02:33:32.454Z,101151.00
2023-09-13T02:35:59.190Z,101152.84
2023-09-13T02:38:32.450Z,101158.94
2023-09-13T02:40:59.133Z,101156.56
2023-09-13T02:43:32.416Z,101156.75
2023-09-13T02:45:59.116Z,101154.03
2023-09-13T02:48:33.376Z,101161.13
2023-09-13T02:51:06.485Z,101154.34
2023-09-13T02:53:33.221Z,101158.41
2023-09-13T02:56:16.460Z,101152.34
2023-09-13T02:58:43.219Z,101149.63
2023-09-13T03:01:18.558Z,101149.63
2023-09-13T03:03:51.558Z,101149.50
2023-09-13T03:06:18.367Z,101153.53
2023-09-13T03:08:51.439Z,101152.84
2023-09-13T03:11:26.494Z,101153.03
2023-09-13T03:13:53.377Z,101153.19
2023-09-13T03:16:29.513Z,101157.44
2023-09-13T03:18:56.690Z,101162.81
2023-09-13T03:21:30.411Z,101156.41
2023-09-13T03:23:57.123Z,101159.97
2023-09-13T03:26:32.433Z,101162.81
2023-09-13T03:28:59.116Z,101159.44
2023-09-13T03:31:34.583Z,101160.59
2023-09-13T03:34:01.378Z,101152.00
2023-09-13T03:36:35.431Z,101162.63
2023-09-13T03:39:02.446Z,101158.41
2023-09-13T03:41:35.501Z,101153.19
2023-09-13T03:44:03.767Z,101147.78
2023-09-13T03:46:37.514Z,101154.00
2023-09-13T03:49:11.606Z,101155.72
2023-09-13T03:51:38.435Z,101152.31
2023-09-13T03:54:11.454Z,101166.50
2023-09-13T03:56:44.656Z,101153.47
2023-09-13T03:59:18.475Z,101153.47
2023-09-13T04:01:45.962Z,101161.28
2023-09-13T04:04:19.530Z,101161.28
2023-09-13T04:06:46.613Z,101158.56
2023-09-13T04:09:20.449Z,101161.41
2023-09-13T04:11:47.196Z,101146.06
2023-09-13T04:14:20.494Z,101153.31
2023-09-13T04:16:47.326Z,101154.84
2023-09-13T04:19:20.495Z,101152.97
2023-09-13T04:21:53.471Z,101156.69
2023-09-13T04:24:26.527Z,101152.97
2023-09-13T04:26:59.490Z,101144.88
2023-09-13T04:29:26.347Z,101142.16
2023-09-13T04:31:59.519Z,101139.66
2023-09-13T04:34:26.997Z,101141.81
2023-09-13T04:37:02.509Z,101136.59
2023-09-13T04:39:30.078Z,101134.75
2023-09-13T04:42:03.521Z,101148.94
2023-09-13T04:44:30.285Z,101150.09
2023-09-13T04:47:05.574Z,101146.38
2023-09-13T04:49:38.472Z,101149.56
2023-09-13T04:52:14.607Z,101146.00
2023-09-13T04:54:47.771Z,101139.81
2023-09-13T04:57:21.445Z,101133.38
2023-09-13T04:59:58.505Z,101140.63
2023-09-13T05:02:25.397Z,101125.41
2023-09-13T05:04:58.553Z,101133.34
2023-09-13T05:07:25.436Z,101131.31
2023-09-13T05:09:58.499Z,101143.13
2023-09-13T05:12:25.164Z,101145.13
2023-09-13T05:14:58.511Z,101141.06
2023-09-13T05:17:25.270Z,101157.47
2023-09-13T05:19:58.481Z,101151.75
2023-09-13T05:22:25.304Z,101154.28
2023-09-13T05:24:58.507Z,101141.13
2023-09-13T05:27:25.197Z,101153.28
2023-09-13T05:29:53.452Z,101157.50
2023-09-13T05:32:26.605Z,101159.03
2023-09-13T05:34:53.265Z,101165.94
2023-09-13T05:37:26.628Z,101169.66
2023-09-13T05:39:53.394Z,101164.41
2023-09-13T05:42:26.575Z,101170.50
2023-09-13T05:44:55.146Z,101169.47
2023-09-13T05:47:28.566Z,101165.94
2023-09-13T05:49:55.333Z,101161.72
2023-09-13T05:52:28.577Z,101170.50
2023-09-13T05:55:15.556Z,101171.03
2023-09-13T05:57:48.560Z,101163.06
2023-09-13T06:00:22.543Z,101165.81
2023-09-13T06:02:55.535Z,101170.88
2023-09-13T06:05:28.550Z,101175.94
2023-09-13T06:07:55.307Z,101180.00
2023-09-13T06:10:28.609Z,101186.94
2023-09-13T06:12:55.800Z,101189.47
2023-09-13T06:15:29.516Z,101186.78
2023-09-13T06:17:56.537Z,101192.34
2023-09-13T06:20:30.545Z,101189.81
2023-09-13T06:23:03.527Z,101203.13
2023-09-13T06:25:36.591Z,101202.44
2023-09-13T06:28:05.499Z,101196.19
2023-09-13T06:30:53.251Z,101189.94
2023-09-13T06:33:41.187Z,101202.03
2023-09-13T06:36:17.214Z,101189.00
2023-09-13T06:38:44.793Z,101192.72
2023-09-13T06:41:20.222Z,101204.34
2023-09-13T06:44:08.370Z,101222.75
2023-09-13T06:46:51.553Z,101206.31
2023-09-13T06:49:23.812Z,101217.31
2023-09-13T06:52:06.588Z,101233.88
2023-09-13T06:54:46.650Z,101234.19
2023-09-13T07:00:04.540Z,101232.31
2023-09-13T07:02:36.792Z,101237.25
2023-09-13T07:07:42.779Z,101286.69
2023-09-13T07:10:16.705Z,101292.50
2023-09-13T07:12:44.045Z,101308.59
2023-09-13T07:15:18.907Z,101311.44
2023-09-13T07:17:46.505Z,101338.31
2023-09-13T07:20:21.082Z,101354.59
2023-09-13T07:22:48.964Z,101377.91
2023-09-13T07:25:24.883Z,101360.25
2023-09-13T07:27:58.834Z,101341.84
2023-09-13T07:30:35.751Z,101369.22
2023-09-13T07:33:03.299Z,101382.34
2023-09-13T07:35:37.720Z,101385.97
2023-09-13T07:38:05.256Z,101375.69
2023-09-13T07:40:39.848Z,101395.47
2023-09-13T07:46:02.752Z,101410.03
2023-09-13T07:48:56.704Z,101397.72
2023-09-13T08:03:33.964Z,101458.50
2023-09-13T08:06:44.860Z,101479.84
2023-09-13T08:13:34.673Z,101495.13
2023-09-13T08:16:52.001Z,101514.50
2023-09-13T08:19:25.662Z,101501.31
2023-09-13T08:21:52.977Z,101517.88
2023-09-13T08:24:26.773Z,101532.59
2023-09-13T08:26:54.113Z,101535.66
2023-09-13T08:29:27.674Z,101516.53
2023-09-13T08:32:01.685Z,101548.47
2023-09-13T08:34:31.667Z,101556.78
2023-09-13T08:39:49.754Z,101541.16
2023-09-13T08:42:23.737Z,101548.16
2023-09-13T08:44:59.718Z,101536.16
2023-09-13T08:47:46.599Z,101509.00
2023-09-13T08:50:26.157Z,101541.84
2023-09-13T08:53:01.758Z,101543.66
2023-09-13T08:55:37.456Z,101531.94
2023-09-13T08:58:11.809Z,101543.03
2023-09-13T09:00:49.742Z,101548.59
2023-09-13T09:03:25.953Z,101564.09
2023-09-13T09:05:53.259Z,101560.16
2023-09-13T09:08:27.671Z,101555.03
2023-09-13T09:11:04.683Z,101572.44
2023-09-13T09:13:39.656Z,101564.84
2023-09-13T09:16:08.120Z,101572.66
2023-09-13T09:18:45.911Z,101566.44
2023-09-13T09:21:13.989Z,101569.69
2023-09-13T09:23:48.663Z,101568.25
2023-09-13T09:26:21.879Z,101574.75
2023-09-13T09:28:51.243Z,101582.97
2023-09-13T09:31:27.679Z,101584.66
2023-09-13T09:34:04.578Z,101577.34
2023-09-13T09:36:42.753Z,101582.44
2023-09-13T09:39:10.112Z,101572.28
2023-09-13T09:41:44.648Z,101582.16
2023-09-13T09:44:13.406Z,101580.38
2023-09-13T09:46:47.890Z,101577.31
2023-09-13T09:49:15.235Z,101577.84
2023-09-13T09:51:48.648Z,101559.50
2023-09-13T09:54:18.677Z,101560.47
2023-09-13T09:56:51.671Z,101556.94
2023-09-13T09:59:36.016Z,101556.69
2023-09-13T10:02:10.864Z,101547.50
2023-09-13T10:04:52.979Z,101555.44
2023-09-13T10:07:26.736Z,101584.00
2023-09-13T10:10:07.806Z,101613.84
2023-09-13T10:12:45.623Z,101613.84
2023-09-13T10:15:19.870Z,101623.88
2023-09-13T10:17:50.048Z,101637.78
2023-09-13T10:20:25.838Z,101627.63
2023-09-13T10:23:02.842Z,101644.97
2023-09-13T10:25:41.750Z,101651.16
2023-09-13T10:28:11.080Z,101651.25
2023-09-13T10:30:47.867Z,101656.56
2023-09-13T10:33:16.490Z,101665.13
2023-09-13T10:38:39.727Z,101679.88
2023-09-13T10:44:12.788Z,101678.56
2023-09-13T10:46:47.859Z,101667.63
2023-09-13T10:49:14.962Z,101670.81
2023-09-13T10:51:49.781Z,101683.53
2023-09-13T10:54:22.103Z,101686.41
2023-09-13T11:03:08.786Z,101691.50
2023-09-13T11:05:36.012Z,101697.31
2023-09-13T11:11:53.759Z,101726.69
2023-09-13T11:14:35.730Z,101724.19
2023-09-13T11:17:46.928Z,101710.25
2023-09-13T11:20:41.718Z,101740.88
2023-09-13T11:29:17.995Z,101749.22
2023-09-13T11:32:01.274Z,101755.22
2023-09-13T11:37:18.572Z,101742.16
2023-09-13T11:44:02.292Z,101762.22
2023-09-13T11:52:28.121Z,101763.97
2023-09-13T11:58:00.861Z,101745.41
2023-09-13T12:00:32.089Z,101749.66
2023-09-13T12:06:36.939Z,101781.56
2023-09-13T12:09:48.629Z,101788.94
2023-09-13T12:15:04.933Z,101775.81
2023-09-13T12:20:34.464Z,101787.66
2023-09-13T12:23:07.802Z,101795.97
2023-09-13T12:25:40.862Z,101798.59
2023-09-13T12:30:56.906Z,101797.31
2023-09-13T12:50:18.449Z,101821.25
2023-09-13T12:52:55.930Z,101822.22
2023-09-13T12:55:38.833Z,101827.50
2023-09-13T13:03:43.999Z,101834.03
2023-09-13T13:16:43.746Z,101851.91
2023-09-13T13:28:13.893Z,101869.97
2023-09-13T13:30:43.347Z,101857.38
2023-09-13T13:33:25.026Z,101847.50
2023-09-13T13:35:52.752Z,101830.41
2023-09-13T13:48:49.926Z,101882.34
2023-09-13T13:54:07.726Z,101854.75
2023-09-13T13:56:42.995Z,101879.38
2023-09-13T13:59:41.869Z,101892.38
2023-09-13T14:09:22.939Z,101883.81
2023-09-13T14:14:49.045Z,101888.59
2023-09-13T14:25:30.214Z,101908.59
2023-09-13T14:42:03.857Z,101894.19
2023-09-13T15:14:17.933Z,101894.94
2023-09-13T15:16:59.022Z,101883.75
2023-09-13T15:23:37.982Z,101924.22
2023-09-13T15:26:07.525Z,101897.53
2023-09-13T15:39:37.038Z,101905.94
2023-09-13T15:42:04.346Z,101898.59
2023-09-13T15:54:43.079Z,101932.19
2023-09-13T16:53:31.976Z,101973.16
2023-09-13T16:56:20.883Z,101973.75
2023-09-13T16:58:57.937Z,101936.00
2023-09-13T17:01:28.474Z,101959.25
2023-09-13T17:06:50.203Z,101971.06
2023-09-13T17:09:30.095Z,101966.63
2023-09-13T17:12:24.514Z,101944.63
2023-09-13T17:14:53.182Z,101955.66
2023-09-13T17:17:30.577Z,101975.25
2023-09-13T17:19:57.826Z,101968.00
2023-09-13T17:22:31.262Z,101983.56
2023-09-13T17:25:01.347Z,101962.78
2023-09-13T17:27:35.074Z,101974.94
2023-09-13T17:30:02.066Z,101986.13
2023-09-13T17:32:36.244Z,101999.97
2023-09-13T17:35:03.317Z,102010.09
2023-09-13T17:37:40.026Z,101990.53
2023-09-13T17:40:20.148Z,101971.13
2023-09-13T17:42:49.019Z,101990.34
2023-09-13T17:45:30.007Z,102007.00
2023-09-13T17:48:08.093Z,101980.72
2023-09-13T17:50:38.784Z,101999.88
2023-09-13T17:53:13.929Z,102018.59
2023-09-13T17:55:41.567Z,102020.56
2023-09-13T17:58:08.448Z,102017.16
2023-09-13T18:00:46.792Z,102016.31
2023-09-13T18:06:11.036Z,102036.13
2023-09-13T18:08:47.307Z,102007.78
2023-09-13T18:11:20.381Z,102030.63
2023-09-13T18:14:02.571Z,102019.97
2023-09-13T18:16:33.147Z,102026.72
2023-09-13T18:19:19.724Z,102014.59
2023-09-13T18:21:47.011Z,102018.81
2023-09-13T18:24:36.646Z,102056.19
2023-09-13T18:27:11.108Z,102034.88
2023-09-13T18:29:47.288Z,102030.84
2023-09-13T18:32:24.135Z,102022.13
2023-09-13T18:34:51.883Z,102060.09
2023-09-13T18:37:29.078Z,102057.66
2023-09-13T18:40:06.161Z,102049.91
2023-09-13T18:42:43.158Z,102059.53
2023-09-13T18:45:14.091Z,102068.44
2023-09-13T18:47:50.301Z,102057.03
2023-09-13T18:50:21.118Z,102085.00
2023-09-13T18:53:00.809Z,102088.78
2023-09-13T18:55:33.920Z,102094.00
2023-09-13T18:58:11.191Z,102092.19
2023-09-13T19:00:44.108Z,102092.19
2023-09-13T19:03:18.220Z,102086.09
2023-09-13T19:06:13.200Z,102085.91
2023-09-13T19:08:54.941Z,102074.56
2023-09-13T19:11:25.683Z,102088.38
2023-09-13T19:14:06.193Z,102067.44
2023-09-13T19:16:44.918Z,102092.94
2023-09-13T19:19:19.077Z,102107.06
2023-09-13T19:21:56.271Z,102071.56
2023-09-13T19:24:23.944Z,102115.16
2023-09-13T19:26:58.112Z,102126.22
2023-09-13T19:29:28.784Z,102104.19
2023-09-13T19:32:03.181Z,102101.31
2023-09-13T19:34:37.064Z,102131.81
2023-09-13T19:37:11.212Z,102116.09
2023-09-13T19:39:42.185Z,102095.00
2023-09-13T19:42:17.177Z,102141.06
2023-09-13T19:44:44.877Z,102125.22
2023-09-13T19:47:19.058Z,102133.16
2023-09-13T19:49:49.577Z,102144.81
2023-09-13T19:55:27.208Z,102144.91
2023-09-13T19:58:05.146Z,102118.47
2023-09-13T20:00:48.821Z,102151.13
2023-09-13T20:03:24.165Z,102154.34
2023-09-13T20:05:59.905Z,102150.69
2023-09-13T20:08:38.345Z,102133.66
2023-09-13T20:11:05.959Z,102135.16
2023-09-13T20:13:46.115Z,102163.44
2023-09-13T20:16:13.376Z,102144.41
2023-09-13T20:18:56.390Z,102135.63
2023-09-13T20:21:26.659Z,102145.78
2023-09-13T20:24:00.203Z,102155.22
2023-09-13T20:26:27.734Z,102143.53
2023-09-13T20:28:55.006Z,102144.50
2023-09-13T20:31:36.144Z,102149.41
2023-09-13T20:34:10.164Z,102134.97
2023-09-13T20:36:46.606Z,102153.25
2023-09-13T20:39:14.172Z,102135.38
2023-09-13T20:41:51.234Z,102165.25
2023-09-13T20:44:23.525Z,102132.81
2023-09-13T20:46:57.290Z,102163.13
2023-09-13T20:49:27.404Z,102147.25
2023-09-13T20:52:04.189Z,102135.38
2023-09-13T20:54:33.023Z,102163.88
2023-09-13T20:57:07.328Z,102157.13
2023-09-13T20:59:41.229Z,102120.50
2023-09-13T21:02:15.333Z,102149.94
2023-09-13T21:04:45.806Z,102151.31
2023-09-13T21:07:25.982Z,102128.06
2023-09-13T21:12:50.340Z,102120.47
2023-09-13T21:15:18.056Z,102115.88
2023-09-13T21:20:29.301Z,102153.53
2023-09-13T21:22:56.590Z,102161.13
2023-09-13T21:25:36.348Z,102158.78
2023-09-13T21:28:04.869Z,102156.91
2023-09-13T21:30:41.530Z,102155.81
2023-09-13T21:33:09.320Z,102168.03
2023-09-13T21:35:49.251Z,102173.78
2023-09-13T21:38:16.944Z,102169.03
2023-09-13T21:40:54.233Z,102136.78
2023-09-13T21:43:25.142Z,102159.53
2023-09-13T21:46:02.397Z,102159.53
2023-09-13T21:48:32.994Z,102142.06
2023-09-13T21:51:11.253Z,102153.50
2023-09-13T21:53:44.200Z,102186.84
2023-09-13T21:56:18.243Z,102180.75
2023-09-13T21:58:52.128Z,102160.44
2023-09-13T22:01:21.147Z,102185.59
2023-09-13T22:03:55.301Z,102193.56
2023-09-13T22:06:30.218Z,102169.53
2023-09-13T22:11:45.550Z,102177.84
2023-09-13T22:14:26.199Z,102168.41
2023-09-13T22:16:53.559Z,102195.19
2023-09-13T22:19:30.205Z,102169.72
2023-09-13T22:21:57.688Z,102184.59
2023-09-13T22:24:32.293Z,102178.31
2023-09-13T22:26:59.756Z,102190.91
2023-09-13T22:29:34.292Z,102188.75
2023-09-13T22:32:02.469Z,102170.31
2023-09-13T22:34:38.408Z,102193.59
2023-09-13T22:37:13.287Z,102159.44
2023-09-13T22:39:50.341Z,102179.97
2023-09-13T22:42:23.133Z,102180.91
2023-09-13T22:47:46.808Z,102174.91
2023-09-13T22:50:21.442Z,102193.97
2023-09-13T22:52:57.249Z,102196.00
2023-09-13T22:55:30.203Z,102166.97
2023-09-13T22:58:04.179Z,102194.66
2023-09-13T23:00:44.059Z,102192.13
2023-09-13T23:03:34.107Z,102158.09
2023-09-13T23:06:14.289Z,102159.81
2023-09-13T23:08:51.277Z,102166.09
2023-09-13T23:11:25.308Z,102198.03
2023-09-13T23:14:07.310Z,102196.44
2023-09-13T23:16:51.294Z,102168.19
2023-09-13T23:19:25.282Z,102194.13
2023-09-13T23:22:08.466Z,102170.09
2023-09-13T23:24:49.135Z,102158.16
2023-09-13T23:27:23.140Z,102169.03
2023-09-13T23:29:57.183Z,102196.50
2023-09-13T23:32:26.131Z,102167.69
2023-09-13T23:35:03.161Z,102183.41
2023-09-13T23:37:30.516Z,102182.81
2023-09-13T23:40:06.428Z,102171.47
2023-09-13T23:42:33.868Z,102163.72
2023-09-13T23:45:11.283Z,102163.16
2023-09-13T23:47:38.836Z,102180.41
2023-09-13T23:50:14.437Z,102187.66
2023-09-13T23:52:52.235Z,102162.91
2023-09-13T23:55:19.472Z,102177.97
2023-09-13T23:57:55.203Z,102202.97
